sensor_id;sensor_type;location;lat;lon;timestamp;temperature;humidity
22161;DHT22;49035;48.812;11.762;2024-02-16T00:01:10;2.50;99.90
22161;DHT22;49035;48.812;11.762;2024-02-16T00:03:36;2.60;99.90
22161;DHT22;49035;48.812;11.762;2024-02-16T00:06:02;2.60;99.90
22161;DHT22;49035;48.812;11.762;2024-02-16T00:08:27;2.40;99.90
22161;DHT22;49035;48.812;11.762;2024-02-16T00:10:53;2.50;99.90
22161;DHT22;49035;48.812;11.762;2024-02-16T00:13:18;2.40;99.90
22161;DHT22;49035;48.812;11.762;2024-02-16T00:15:44;2.40;99.90
22161;DHT22;49035;48.812;11.762;2024-02-16T00:18:10;2.40;99.90
22161;DHT22;49035;48.812;11.762;2024-02-16T00:20:35;2.40;99.90
22161;DHT22;49035;48.812;11.762;2024-02-16T00:23:01;2.30;99.90
22161;DHT22;49035;48.812;11.762;2024-02-16T00:25:26;2.20;99.90
22161;DHT22;49035;48.812;11.762;2024-02-16T00:27:52;2.40;99.90
22161;DHT22;49035;48.812;11.762;2024-02-16T00:30:21;2.40;99.90
22161;DHT22;49035;48.812;11.762;2024-02-16T00:32:48;2.50;99.90
22161;DHT22;49035;48.812;11.762;2024-02-16T00:35:17;2.70;99.90
22161;DHT22;49035;48.812;11.762;2024-02-16T00:37:43;2.70;99.90
22161;DHT22;49035;48.812;11.762;2024-02-16T00:40:09;2.70;99.90
22161;DHT22;49035;48.812;11.762;2024-02-16T00:42:35;2.50;99.90
22161;DHT22;49035;48.812;11.762;2024-02-16T00:45:00;2.40;99.90
22161;DHT22;49035;48.812;11.762;2024-02-16T00:47:26;2.20;99.90
22161;DHT22;49035;48.812;11.762;2024-02-16T00:49:55;2.20;99.90
22161;DHT22;49035;48.812;11.762;2024-02-16T00:52:21;2.10;99.90
22161;DHT22;49035;48.812;11.762;2024-02-16T00:54:48;2.10;99.90
22161;DHT22;49035;48.812;11.762;2024-02-16T00:57:14;2.10;99.90
22161;DHT22;49035;48.812;11.762;2024-02-16T00:59:40;2.10;99.90
22161;DHT22;49035;48.812;11.762;2024-02-16T01:02:06;2.00;99.90
22161;DHT22;49035;48.812;11.762;2024-02-16T01:04:32;2.00;99.90
22161;DHT22;49035;48.812;11.762;2024-02-16T01:06:58;2.00;99.90
22161;DHT22;49035;48.812;11.762;2024-02-16T01:09:24;2.10;99.90
22161;DHT22;49035;48.812;11.762;2024-02-16T01:11:50;2.10;99.90
22161;DHT22;49035;48.812;11.762;2024-02-16T01:14:15;2.00;99.90
22161;DHT22;49035;48.812;11.762;2024-02-16T01:16:41;2.00;99.90
22161;DHT22;49035;48.812;11.762;2024-02-16T01:19:07;2.10;99.90
22161;DHT22;49035;48.812;11.762;2024-02-16T01:21:33;2.10;99.90
22161;DHT22;49035;48.812;11.762;2024-02-16T01:23:58;1.90;99.90
22161;DHT22;49035;48.812;11.762;2024-02-16T01:26:26;1.80;99.90
22161;DHT22;49035;48.812;11.762;2024-02-16T01:28:52;2.10;99.90
22161;DHT22;49035;48.812;11.762;2024-02-16T01:31:18;2.30;99.90
22161;DHT22;49035;48.812;11.762;2024-02-16T01:33:43;2.40;99.90
22161;DHT22;49035;48.812;11.762;2024-02-16T01:36:09;2.60;99.90
22161;DHT22;49035;48.812;11.762;2024-02-16T01:38:36;2.80;99.90
22161;DHT22;49035;48.812;11.762;2024-02-16T01:41:02;3.10;99.90
22161;DHT22;49035;48.812;11.762;2024-02-16T01:43:27;3.00;99.90
22161;DHT22;49035;48.812;11.762;2024-02-16T01:45:53;2.80;99.90
22161;DHT22;49035;48.812;11.762;2024-02-16T01:48:19;2.90;99.90
22161;DHT22;49035;48.812;11.762;2024-02-16T01:50:45;2.90;99.90
22161;DHT22;49035;48.812;11.762;2024-02-16T01:53:15;3.00;99.90
22161;DHT22;49035;48.812;11.762;2024-02-16T01:55:44;3.10;99.90
22161;DHT22;49035;48.812;11.762;2024-02-16T01:58:10;3.10;99.90
22161;DHT22;49035;48.812;11.762;2024-02-16T02:00:36;2.90;99.90
22161;DHT22;49035;48.812;11.762;2024-02-16T02:03:02;3.20;99.90
22161;DHT22;49035;48.812;11.762;2024-02-16T02:05:28;3.20;99.90
22161;DHT22;49035;48.812;11.762;2024-02-16T02:07:54;3.10;99.90
22161;DHT22;49035;48.812;11.762;2024-02-16T02:10:19;3.30;99.90
22161;DHT22;49035;48.812;11.762;2024-02-16T02:12:45;3.30;99.90
22161;DHT22;49035;48.812;11.762;2024-02-16T02:15:11;3.20;99.90
22161;DHT22;49035;48.812;11.762;2024-02-16T02:17:37;3.20;99.90
22161;DHT22;49035;48.812;11.762;2024-02-16T02:20:03;3.20;99.90
22161;DHT22;49035;48.812;11.762;2024-02-16T02:22:37;3.30;99.90
22161;DHT22;49035;48.812;11.762;2024-02-16T02:25:03;3.50;99.90
22161;DHT22;49035;48.812;11.762;2024-02-16T02:27:30;3.60;99.90
22161;DHT22;49035;48.812;11.762;2024-02-16T02:29:56;3.50;99.90
22161;DHT22;49035;48.812;11.762;2024-02-16T02:32:21;3.50;99.90
22161;DHT22;49035;48.812;11.762;2024-02-16T02:34:47;3.50;99.90
22161;DHT22;49035;48.812;11.762;2024-02-16T02:37:12;3.40;99.90
22161;DHT22;49035;48.812;11.762;2024-02-16T02:39:38;3.30;99.90
22161;DHT22;49035;48.812;11.762;2024-02-16T02:42:04;3.30;99.90
22161;DHT22;49035;48.812;11.762;2024-02-16T02:44:29;3.40;99.90
22161;DHT22;49035;48.812;11.762;2024-02-16T02:46:56;3.30;99.90
22161;DHT22;49035;48.812;11.762;2024-02-16T02:49:22;3.30;99.90
22161;DHT22;49035;48.812;11.762;2024-02-16T02:51:48;3.20;99.90
22161;DHT22;49035;48.812;11.762;2024-02-16T02:54:13;3.20;99.90
22161;DHT22;49035;48.812;11.762;2024-02-16T02:56:39;3.30;99.90
22161;DHT22;49035;48.812;11.762;2024-02-16T02:59:04;3.10;99.90
22161;DHT22;49035;48.812;11.762;2024-02-16T03:01:31;3.60;99.90
22161;DHT22;49035;48.812;11.762;2024-02-16T03:03:57;3.50;99.90
22161;DHT22;49035;48.812;11.762;2024-02-16T03:06:23;3.60;99.90
22161;DHT22;49035;48.812;11.762;2024-02-16T03:08:49;3.80;99.90
22161;DHT22;49035;48.812;11.762;2024-02-16T03:11:14;3.80;99.90
22161;DHT22;49035;48.812;11.762;2024-02-16T03:13:40;3.80;99.90
22161;DHT22;49035;48.812;11.762;2024-02-16T03:16:05;3.80;99.90
22161;DHT22;49035;48.812;11.762;2024-02-16T03:18:32;3.80;99.90
22161;DHT22;49035;48.812;11.762;2024-02-16T03:20:58;3.70;99.90
22161;DHT22;49035;48.812;11.762;2024-02-16T03:23:24;3.80;99.90
22161;DHT22;49035;48.812;11.762;2024-02-16T03:25:49;3.70;99.90
22161;DHT22;49035;48.812;11.762;2024-02-16T03:28:15;3.80;99.90
22161;DHT22;49035;48.812;11.762;2024-02-16T03:30:41;3.80;99.90
22161;DHT22;49035;48.812;11.762;2024-02-16T03:33:08;3.80;99.90
22161;DHT22;49035;48.812;11.762;2024-02-16T03:35:33;3.90;99.90
22161;DHT22;49035;48.812;11.762;2024-02-16T03:37:59;3.90;99.90
22161;DHT22;49035;48.812;11.762;2024-02-16T03:40:25;3.80;99.90
22161;DHT22;49035;48.812;11.762;2024-02-16T03:42:54;4.20;99.90
22161;DHT22;49035;48.812;11.762;2024-02-16T03:45:20;3.90;99.90
22161;DHT22;49035;48.812;11.762;2024-02-16T03:47:47;3.90;99.90
22161;DHT22;49035;48.812;11.762;2024-02-16T03:50:14;3.80;99.90
22161;DHT22;49035;48.812;11.762;2024-02-16T03:52:40;3.80;99.90
22161;DHT22;49035;48.812;11.762;2024-02-16T03:55:06;3.80;99.90
22161;DHT22;49035;48.812;11.762;2024-02-16T03:57:31;3.70;99.90
22161;DHT22;49035;48.812;11.762;2024-02-16T03:59:57;3.70;99.90
22161;DHT22;49035;48.812;11.762;2024-02-16T04:02:23;3.60;99.90
22161;DHT22;49035;48.812;11.762;2024-02-16T04:04:48;3.60;99.90
22161;DHT22;49035;48.812;11.762;2024-02-16T04:07:14;3.70;99.90
22161;DHT22;49035;48.812;11.762;2024-02-16T04:09:39;3.70;99.90
22161;DHT22;49035;48.812;11.762;2024-02-16T04:12:05;3.40;99.90
22161;DHT22;49035;48.812;11.762;2024-02-16T04:14:31;3.70;99.90
22161;DHT22;49035;48.812;11.762;2024-02-16T04:16:59;3.70;99.90
22161;DHT22;49035;48.812;11.762;2024-02-16T04:19:26;3.70;99.90
22161;DHT22;49035;48.812;11.762;2024-02-16T04:21:51;3.70;99.90
22161;DHT22;49035;48.812;11.762;2024-02-16T04:24:17;3.70;99.90
22161;DHT22;49035;48.812;11.762;2024-02-16T04:26:43;3.70;99.90
22161;DHT22;49035;48.812;11.762;2024-02-16T04:29:09;3.50;99.90
22161;DHT22;49035;48.812;11.762;2024-02-16T04:31:35;4.00;99.90
22161;DHT22;49035;48.812;11.762;2024-02-16T04:34:00;3.80;99.90
22161;DHT22;49035;48.812;11.762;2024-02-16T04:36:27;3.80;99.90
22161;DHT22;49035;48.812;11.762;2024-02-16T04:38:52;3.50;99.90
22161;DHT22;49035;48.812;11.762;2024-02-16T04:41:20;3.80;99.90
22161;DHT22;49035;48.812;11.762;2024-02-16T04:43:45;3.80;99.90
22161;DHT22;49035;48.812;11.762;2024-02-16T04:46:15;3.80;99.90
22161;DHT22;49035;48.812;11.762;2024-02-16T04:48:41;3.70;99.90
22161;DHT22;49035;48.812;11.762;2024-02-16T04:51:06;3.40;99.90
22161;DHT22;49035;48.812;11.762;2024-02-16T04:53:32;3.50;99.90
22161;DHT22;49035;48.812;11.762;2024-02-16T04:55:57;4.00;99.90
22161;DHT22;49035;48.812;11.762;2024-02-16T04:58:23;3.90;99.90
22161;DHT22;49035;48.812;11.762;2024-02-16T05:00:49;4.00;99.90
22161;DHT22;49035;48.812;11.762;2024-02-16T05:03:15;3.90;99.90
22161;DHT22;49035;48.812;11.762;2024-02-16T05:05:40;3.80;99.90
22161;DHT22;49035;48.812;11.762;2024-02-16T05:08:06;3.70;99.90
22161;DHT22;49035;48.812;11.762;2024-02-16T05:10:32;3.60;99.90
22161;DHT22;49035;48.812;11.762;2024-02-16T05:12:57;3.80;99.90
22161;DHT22;49035;48.812;11.762;2024-02-16T05:15:24;3.60;99.90
22161;DHT22;49035;48.812;11.762;2024-02-16T05:17:49;3.60;99.90
22161;DHT22;49035;48.812;11.762;2024-02-16T05:20:15;3.80;99.90
22161;DHT22;49035;48.812;11.762;2024-02-16T05:22:44;3.50;99.90
22161;DHT22;49035;48.812;11.762;2024-02-16T05:25:15;3.50;99.90
22161;DHT22;49035;48.812;11.762;2024-02-16T05:27:41;3.70;99.90
22161;DHT22;49035;48.812;11.762;2024-02-16T05:30:10;3.50;99.90
22161;DHT22;49035;48.812;11.762;2024-02-16T05:32:37;3.80;99.90
22161;DHT22;49035;48.812;11.762;2024-02-16T05:35:07;3.70;99.90
22161;DHT22;49035;48.812;11.762;2024-02-16T05:37:44;3.90;99.90
22161;DHT22;49035;48.812;11.762;2024-02-16T05:40:13;4.10;99.90
22161;DHT22;49035;48.812;11.762;2024-02-16T05:42:47;3.90;99.90
22161;DHT22;49035;48.812;11.762;2024-02-16T05:45:14;4.40;99.90
22161;DHT22;49035;48.812;11.762;2024-02-16T05:47:39;4.70;99.90
22161;DHT22;49035;48.812;11.762;2024-02-16T05:50:05;4.70;99.90
22161;DHT22;49035;48.812;11.762;2024-02-16T05:52:32;4.70;99.90
22161;DHT22;49035;48.812;11.762;2024-02-16T05:54:57;4.80;99.90
22161;DHT22;49035;48.812;11.762;2024-02-16T05:57:23;4.80;99.90
22161;DHT22;49035;48.812;11.762;2024-02-16T05:59:49;5.00;99.90
22161;DHT22;49035;48.812;11.762;2024-02-16T06:02:15;5.00;99.90
22161;DHT22;49035;48.812;11.762;2024-02-16T06:04:41;4.50;99.90
22161;DHT22;49035;48.812;11.762;2024-02-16T06:07:07;4.80;99.90
22161;DHT22;49035;48.812;11.762;2024-02-16T06:09:34;4.60;99.90
22161;DHT22;49035;48.812;11.762;2024-02-16T06:12:03;4.50;99.90
22161;DHT22;49035;48.812;11.762;2024-02-16T06:14:33;4.40;99.90
22161;DHT22;49035;48.812;11.762;2024-02-16T06:16:59;4.50;99.90
22161;DHT22;49035;48.812;11.762;2024-02-16T06:19:25;4.80;99.90
22161;DHT22;49035;48.812;11.762;2024-02-16T06:21:52;4.70;99.90
22161;DHT22;49035;48.812;11.762;2024-02-16T06:24:17;4.70;99.90
22161;DHT22;49035;48.812;11.762;2024-02-16T06:26:44;4.60;99.90
22161;DHT22;49035;48.812;11.762;2024-02-16T06:29:10;4.60;99.90
22161;DHT22;49035;48.812;11.762;2024-02-16T06:31:35;4.60;99.90
22161;DHT22;49035;48.812;11.762;2024-02-16T06:34:02;4.70;99.90
22161;DHT22;49035;48.812;11.762;2024-02-16T06:36:28;4.80;99.90
22161;DHT22;49035;48.812;11.762;2024-02-16T06:38:54;5.00;99.90
22161;DHT22;49035;48.812;11.762;2024-02-16T06:41:19;5.10;99.90
22161;DHT22;49035;48.812;11.762;2024-02-16T06:43:45;5.20;99.90
22161;DHT22;49035;48.812;11.762;2024-02-16T06:46:10;5.30;99.90
22161;DHT22;49035;48.812;11.762;2024-02-16T06:48:36;5.30;99.90
22161;DHT22;49035;48.812;11.762;2024-02-16T06:51:01;5.60;99.90
22161;DHT22;49035;48.812;11.762;2024-02-16T06:53:27;5.60;99.90
22161;DHT22;49035;48.812;11.762;2024-02-16T06:55:53;5.20;99.90
22161;DHT22;49035;48.812;11.762;2024-02-16T06:58:18;5.50;99.90
22161;DHT22;49035;48.812;11.762;2024-02-16T07:00:44;5.70;99.90
22161;DHT22;49035;48.812;11.762;2024-02-16T07:03:09;5.80;99.90
22161;DHT22;49035;48.812;11.762;2024-02-16T07:05:35;5.80;99.90
22161;DHT22;49035;48.812;11.762;2024-02-16T07:08:01;5.80;99.90
22161;DHT22;49035;48.812;11.762;2024-02-16T07:10:27;5.90;99.90
22161;DHT22;49035;48.812;11.762;2024-02-16T07:12:52;6.00;99.90
22161;DHT22;49035;48.812;11.762;2024-02-16T07:15:18;6.10;99.90
22161;DHT22;49035;48.812;11.762;2024-02-16T07:17:43;6.10;99.90
22161;DHT22;49035;48.812;11.762;2024-02-16T07:20:10;6.10;99.90
22161;DHT22;49035;48.812;11.762;2024-02-16T07:22:36;6.00;99.90
22161;DHT22;49035;48.812;11.762;2024-02-16T07:25:01;6.00;99.90
22161;DHT22;49035;48.812;11.762;2024-02-16T07:27:28;6.10;99.90
22161;DHT22;49035;48.812;11.762;2024-02-16T07:29:54;6.20;99.90
22161;DHT22;49035;48.812;11.762;2024-02-16T07:32:20;6.20;99.90
22161;DHT22;49035;48.812;11.762;2024-02-16T07:34:46;6.30;99.90
22161;DHT22;49035;48.812;11.762;2024-02-16T07:37:13;6.30;99.90
22161;DHT22;49035;48.812;11.762;2024-02-16T07:39:39;6.50;99.90
22161;DHT22;49035;48.812;11.762;2024-02-16T07:42:06;6.50;99.90
22161;DHT22;49035;48.812;11.762;2024-02-16T07:44:35;6.50;99.90
22161;DHT22;49035;48.812;11.762;2024-02-16T07:47:01;6.50;99.90
22161;DHT22;49035;48.812;11.762;2024-02-16T07:49:27;6.80;99.90
22161;DHT22;49035;48.812;11.762;2024-02-16T07:51:52;6.60;99.90
22161;DHT22;49035;48.812;11.762;2024-02-16T07:54:18;6.50;99.90
22161;DHT22;49035;48.812;11.762;2024-02-16T07:56:43;6.80;99.90
22161;DHT22;49035;48.812;11.762;2024-02-16T07:59:09;6.60;99.90
22161;DHT22;49035;48.812;11.762;2024-02-16T08:01:35;7.00;99.90
22161;DHT22;49035;48.812;11.762;2024-02-16T08:04:00;6.90;99.90
22161;DHT22;49035;48.812;11.762;2024-02-16T08:06:26;6.90;99.90
22161;DHT22;49035;48.812;11.762;2024-02-16T08:08:53;6.90;99.90
22161;DHT22;49035;48.812;11.762;2024-02-16T08:11:19;7.20;99.90
22161;DHT22;49035;48.812;11.762;2024-02-16T08:13:45;6.80;99.90
22161;DHT22;49035;48.812;11.762;2024-02-16T08:16:11;6.80;99.90
22161;DHT22;49035;48.812;11.762;2024-02-16T08:18:36;6.90;99.90
22161;DHT22;49035;48.812;11.762;2024-02-16T08:21:05;6.80;99.90
22161;DHT22;49035;48.812;11.762;2024-02-16T08:23:31;7.10;99.90
22161;DHT22;49035;48.812;11.762;2024-02-16T08:25:56;7.10;99.90
22161;DHT22;49035;48.812;11.762;2024-02-16T08:28:23;7.00;99.90
22161;DHT22;49035;48.812;11.762;2024-02-16T08:30:50;7.20;99.90
22161;DHT22;49035;48.812;11.762;2024-02-16T08:33:15;7.30;99.90
22161;DHT22;49035;48.812;11.762;2024-02-16T08:35:41;7.50;99.90
22161;DHT22;49035;48.812;11.762;2024-02-16T08:38:06;7.60;99.90
22161;DHT22;49035;48.812;11.762;2024-02-16T08:40:37;7.60;99.90
22161;DHT22;49035;48.812;11.762;2024-02-16T08:43:06;8.00;99.90
22161;DHT22;49035;48.812;11.762;2024-02-16T08:45:35;8.00;99.90
22161;DHT22;49035;48.812;11.762;2024-02-16T08:48:00;8.10;99.90
22161;DHT22;49035;48.812;11.762;2024-02-16T08:50:29;8.20;99.90
22161;DHT22;49035;48.812;11.762;2024-02-16T08:52:54;8.40;99.90
22161;DHT22;49035;48.812;11.762;2024-02-16T08:55:20;8.80;99.90
22161;DHT22;49035;48.812;11.762;2024-02-16T08:57:46;8.80;99.90
22161;DHT22;49035;48.812;11.762;2024-02-16T09:00:12;8.90;99.90
22161;DHT22;49035;48.812;11.762;2024-02-16T09:02:38;9.10;99.90
22161;DHT22;49035;48.812;11.762;2024-02-16T09:05:04;9.10;99.90
22161;DHT22;49035;48.812;11.762;2024-02-16T09:07:30;9.40;99.90
22161;DHT22;49035;48.812;11.762;2024-02-16T09:09:56;9.40;99.90
22161;DHT22;49035;48.812;11.762;2024-02-16T09:12:22;9.70;99.90
22161;DHT22;49035;48.812;11.762;2024-02-16T09:14:48;10.00;99.90
22161;DHT22;49035;48.812;11.762;2024-02-16T09:17:13;10.20;99.90
22161;DHT22;49035;48.812;11.762;2024-02-16T09:19:39;10.30;99.90
22161;DHT22;49035;48.812;11.762;2024-02-16T09:22:05;10.60;99.90
22161;DHT22;49035;48.812;11.762;2024-02-16T09:24:33;10.50;99.90
22161;DHT22;49035;48.812;11.762;2024-02-16T09:26:58;10.50;99.90
22161;DHT22;49035;48.812;11.762;2024-02-16T09:29:29;10.60;99.90
22161;DHT22;49035;48.812;11.762;2024-02-16T09:31:55;10.70;99.90
22161;DHT22;49035;48.812;11.762;2024-02-16T09:34:20;10.80;99.90
22161;DHT22;49035;48.812;11.762;2024-02-16T09:36:46;10.90;99.90
22161;DHT22;49035;48.812;11.762;2024-02-16T09:39:12;11.00;99.90
22161;DHT22;49035;48.812;11.762;2024-02-16T09:41:41;11.30;99.90
22161;DHT22;49035;48.812;11.762;2024-02-16T09:44:08;11.30;99.90
22161;DHT22;49035;48.812;11.762;2024-02-16T09:46:36;11.20;99.90
22161;DHT22;49035;48.812;11.762;2024-02-16T09:49:05;11.40;99.90
22161;DHT22;49035;48.812;11.762;2024-02-16T09:51:31;11.20;99.90
22161;DHT22;49035;48.812;11.762;2024-02-16T09:53:57;11.50;99.90
22161;DHT22;49035;48.812;11.762;2024-02-16T09:56:22;11.70;99.90
22161;DHT22;49035;48.812;11.762;2024-02-16T09:58:51;12.00;99.90
22161;DHT22;49035;48.812;11.762;2024-02-16T10:01:24;12.00;99.90
22161;DHT22;49035;48.812;11.762;2024-02-16T10:03:50;12.10;99.90
22161;DHT22;49035;48.812;11.762;2024-02-16T10:06:16;11.80;99.90
22161;DHT22;49035;48.812;11.762;2024-02-16T10:08:52;12.00;99.90
22161;DHT22;49035;48.812;11.762;2024-02-16T10:11:20;12.00;99.90
22161;DHT22;49035;48.812;11.762;2024-02-16T10:13:56;12.10;99.90
22161;DHT22;49035;48.812;11.762;2024-02-16T10:16:22;12.30;99.90
22161;DHT22;49035;48.812;11.762;2024-02-16T10:18:48;12.50;99.90
22161;DHT22;49035;48.812;11.762;2024-02-16T10:21:13;12.40;99.90
22161;DHT22;49035;48.812;11.762;2024-02-16T10:24:20;12.40;99.90
22161;DHT22;49035;48.812;11.762;2024-02-16T10:26:46;12.40;99.90
22161;DHT22;49035;48.812;11.762;2024-02-16T10:29:12;12.60;99.90
22161;DHT22;49035;48.812;11.762;2024-02-16T10:31:39;13.00;99.90
22161;DHT22;49035;48.812;11.762;2024-02-16T10:34:05;13.10;99.90
22161;DHT22;49035;48.812;11.762;2024-02-16T10:36:35;13.10;99.90
22161;DHT22;49035;48.812;11.762;2024-02-16T10:39:02;13.20;99.90
22161;DHT22;49035;48.812;11.762;2024-02-16T10:41:50;13.30;99.90
22161;DHT22;49035;48.812;11.762;2024-02-16T10:44:16;13.50;99.90
22161;DHT22;49035;48.812;11.762;2024-02-16T10:46:42;13.60;99.90
22161;DHT22;49035;48.812;11.762;2024-02-16T10:49:08;13.50;99.90
22161;DHT22;49035;48.812;11.762;2024-02-16T10:51:47;13.30;99.90
22161;DHT22;49035;48.812;11.762;2024-02-16T10:54:17;13.40;99.90
22161;DHT22;49035;48.812;11.762;2024-02-16T10:56:43;13.40;99.90
22161;DHT22;49035;48.812;11.762;2024-02-16T10:59:10;13.40;99.90
22161;DHT22;49035;48.812;11.762;2024-02-16T11:01:40;13.50;99.90
22161;DHT22;49035;48.812;11.762;2024-02-16T11:04:07;13.70;99.90
22161;DHT22;49035;48.812;11.762;2024-02-16T11:07:38;13.90;99.90
22161;DHT22;49035;48.812;11.762;2024-02-16T11:09:59;14.10;99.90
22161;DHT22;49035;48.812;11.762;2024-02-16T11:12:33;14.00;99.90
22161;DHT22;49035;48.812;11.762;2024-02-16T11:15:00;14.00;99.90
22161;DHT22;49035;48.812;11.762;2024-02-16T11:17:25;14.10;99.90
22161;DHT22;49035;48.812;11.762;2024-02-16T11:19:55;14.10;99.90
22161;DHT22;49035;48.812;11.762;2024-02-16T11:22:21;14.10;99.90
22161;DHT22;49035;48.812;11.762;2024-02-16T11:24:48;14.10;99.90
22161;DHT22;49035;48.812;11.762;2024-02-16T11:27:15;14.20;99.90
22161;DHT22;49035;48.812;11.762;2024-02-16T11:29:45;14.50;99.90
22161;DHT22;49035;48.812;11.762;2024-02-16T11:32:10;14.60;99.90
22161;DHT22;49035;48.812;11.762;2024-02-16T11:34:36;14.70;99.90
22161;DHT22;49035;48.812;11.762;2024-02-16T11:37:04;14.80;99.90
22161;DHT22;49035;48.812;11.762;2024-02-16T11:39:30;14.90;99.90
22161;DHT22;49035;48.812;11.762;2024-02-16T11:44:32;14.90;99.90
22161;DHT22;49035;48.812;11.762;2024-02-16T11:46:58;15.20;99.90
22161;DHT22;49035;48.812;11.762;2024-02-16T11:49:24;15.30;99.30
22161;DHT22;49035;48.812;11.762;2024-02-16T11:51:50;14.70;99.80
22161;DHT22;49035;48.812;11.762;2024-02-16T11:54:16;14.60;99.90
22161;DHT22;49035;48.812;11.762;2024-02-16T11:56:46;14.90;99.90
22161;DHT22;49035;48.812;11.762;2024-02-16T11:59:15;15.40;99.90
22161;DHT22;49035;48.812;11.762;2024-02-16T12:01:57;15.60;99.90
22161;DHT22;49035;48.812;11.762;2024-02-16T12:09:22;15.20;98.40
22161;DHT22;49035;48.812;11.762;2024-02-16T12:11:48;14.80;99.70
22161;DHT22;49035;48.812;11.762;2024-02-16T12:14:16;14.90;99.90
22161;DHT22;49035;48.812;11.762;2024-02-16T12:16:46;15.30;99.90
22161;DHT22;49035;48.812;11.762;2024-02-16T12:19:12;15.20;99.30
22161;DHT22;49035;48.812;11.762;2024-02-16T12:21:38;15.10;99.90
22161;DHT22;49035;48.812;11.762;2024-02-16T12:24:04;15.20;99.90
22161;DHT22;49035;48.812;11.762;2024-02-16T12:26:30;15.50;99.90
22161;DHT22;49035;48.812;11.762;2024-02-16T12:28:55;15.30;99.00
22161;DHT22;49035;48.812;11.762;2024-02-16T12:31:21;15.30;99.40
22161;DHT22;49035;48.812;11.762;2024-02-16T12:33:47;15.40;97.60
22161;DHT22;49035;48.812;11.762;2024-02-16T12:36:13;15.40;99.70
22161;DHT22;49035;48.812;11.762;2024-02-16T12:38:40;15.50;99.10
22161;DHT22;49035;48.812;11.762;2024-02-16T12:41:05;15.30;96.90
22161;DHT22;49035;48.812;11.762;2024-02-16T12:43:31;15.10;97.70
22161;DHT22;49035;48.812;11.762;2024-02-16T12:45:57;15.00;99.30
22161;DHT22;49035;48.812;11.762;2024-02-16T12:48:25;14.70;99.20
22161;DHT22;49035;48.812;11.762;2024-02-16T12:50:51;14.70;99.50
22161;DHT22;49035;48.812;11.762;2024-02-16T12:53:18;14.70;99.30
22161;DHT22;49035;48.812;11.762;2024-02-16T12:55:43;14.60;99.90
22161;DHT22;49035;48.812;11.762;2024-02-16T12:58:09;14.70;99.90
22161;DHT22;49035;48.812;11.762;2024-02-16T13:00:35;14.90;99.90
22161;DHT22;49035;48.812;11.762;2024-02-16T13:03:01;15.10;99.90
22161;DHT22;49035;48.812;11.762;2024-02-16T13:05:26;15.30;99.40
22161;DHT22;49035;48.812;11.762;2024-02-16T13:07:52;15.50;99.30
22161;DHT22;49035;48.812;11.762;2024-02-16T13:10:18;15.80;99.00
22161;DHT22;49035;48.812;11.762;2024-02-16T13:12:44;16.10;98.40
22161;DHT22;49035;48.812;11.762;2024-02-16T13:15:10;16.00;96.60
22161;DHT22;49035;48.812;11.762;2024-02-16T13:17:36;15.80;97.40
22161;DHT22;49035;48.812;11.762;2024-02-16T13:20:02;15.70;98.90
22161;DHT22;49035;48.812;11.762;2024-02-16T13:22:35;15.80;98.40
22161;DHT22;49035;48.812;11.762;2024-02-16T13:25:04;16.10;98.00
22161;DHT22;49035;48.812;11.762;2024-02-16T13:27:31;16.20;95.80
22161;DHT22;49035;48.812;11.762;2024-02-16T13:29:57;16.00;97.50
22161;DHT22;49035;48.812;11.762;2024-02-16T13:32:23;16.00;97.40
22161;DHT22;49035;48.812;11.762;2024-02-16T13:34:49;16.00;97.00
22161;DHT22;49035;48.812;11.762;2024-02-16T13:37:14;15.50;96.50
22161;DHT22;49035;48.812;11.762;2024-02-16T13:39:40;15.00;98.70
22161;DHT22;49035;48.812;11.762;2024-02-16T13:42:06;14.80;99.00
22161;DHT22;49035;48.812;11.762;2024-02-16T13:44:31;14.50;99.40
22161;DHT22;49035;48.812;11.762;2024-02-16T13:46:57;14.50;99.90
22161;DHT22;49035;48.812;11.762;2024-02-16T13:49:23;14.40;99.90
22161;DHT22;49035;48.812;11.762;2024-02-16T13:51:48;14.40;99.90
22161;DHT22;49035;48.812;11.762;2024-02-16T13:54:14;14.40;99.70
22161;DHT22;49035;48.812;11.762;2024-02-16T13:56:40;14.40;99.90
22161;DHT22;49035;48.812;11.762;2024-02-16T13:59:06;14.60;99.90
22161;DHT22;49035;48.812;11.762;2024-02-16T14:01:35;14.70;99.90
22161;DHT22;49035;48.812;11.762;2024-02-16T14:04:02;14.70;99.90
22161;DHT22;49035;48.812;11.762;2024-02-16T14:06:28;14.70;99.90
22161;DHT22;49035;48.812;11.762;2024-02-16T14:08:56;14.80;99.90
22161;DHT22;49035;48.812;11.762;2024-02-16T14:11:22;15.00;99.90
22161;DHT22;49035;48.812;11.762;2024-02-16T14:13:48;15.10;99.90
22161;DHT22;49035;48.812;11.762;2024-02-16T14:16:14;14.90;99.90
22161;DHT22;49035;48.812;11.762;2024-02-16T14:18:40;14.80;99.90
22161;DHT22;49035;48.812;11.762;2024-02-16T14:21:05;15.00;99.90
22161;DHT22;49035;48.812;11.762;2024-02-16T14:23:31;15.30;99.90
22161;DHT22;49035;48.812;11.762;2024-02-16T14:25:57;15.40;99.90
22161;DHT22;49035;48.812;11.762;2024-02-16T14:28:23;15.20;99.90
22161;DHT22;49035;48.812;11.762;2024-02-16T14:30:49;14.90;99.90
22161;DHT22;49035;48.812;11.762;2024-02-16T14:33:15;15.00;99.90
22161;DHT22;49035;48.812;11.762;2024-02-16T14:35:45;14.90;99.90
22161;DHT22;49035;48.812;11.762;2024-02-16T14:38:12;14.80;99.90
22161;DHT22;49035;48.812;11.762;2024-02-16T14:40:38;14.70;99.90
22161;DHT22;49035;48.812;11.762;2024-02-16T14:43:04;14.60;99.90
22161;DHT22;49035;48.812;11.762;2024-02-16T14:45:30;14.50;99.90
22161;DHT22;49035;48.812;11.762;2024-02-16T14:47:56;14.40;99.90
22161;DHT22;49035;48.812;11.762;2024-02-16T14:50:23;14.30;99.90
22161;DHT22;49035;48.812;11.762;2024-02-16T14:52:49;14.20;99.90
22161;DHT22;49035;48.812;11.762;2024-02-16T14:55:15;14.10;99.90
22161;DHT22;49035;48.812;11.762;2024-02-16T14:57:41;14.10;99.90
22161;DHT22;49035;48.812;11.762;2024-02-16T15:00:08;14.00;99.90
22161;DHT22;49035;48.812;11.762;2024-02-16T15:02:33;13.90;99.90
22161;DHT22;49035;48.812;11.762;2024-02-16T15:04:59;14.00;99.90
22161;DHT22;49035;48.812;11.762;2024-02-16T15:07:25;13.90;99.90
22161;DHT22;49035;48.812;11.762;2024-02-16T15:09:51;13.80;99.90
22161;DHT22;49035;48.812;11.762;2024-02-16T15:12:16;13.80;99.90
22161;DHT22;49035;48.812;11.762;2024-02-16T15:14:48;13.70;99.90
22161;DHT22;49035;48.812;11.762;2024-02-16T15:17:14;13.60;99.90
22161;DHT22;49035;48.812;11.762;2024-02-16T15:19:40;13.50;99.90
22161;DHT22;49035;48.812;11.762;2024-02-16T15:22:05;13.30;99.90
22161;DHT22;49035;48.812;11.762;2024-02-16T15:24:31;13.30;99.90
22161;DHT22;49035;48.812;11.762;2024-02-16T15:26:57;13.20;99.90
22161;DHT22;49035;48.812;11.762;2024-02-16T15:29:23;13.10;99.90